Mary J — WDG4801 — position and weather

sailwx.info

Track history (hours):
 
Tides and Currents Weather Stations Pressure Air Temp Water Temp Dewpoint Dewpoint Depression Visibility Wind Speed Wind Dir Waves Ship Positions

Mary J

Owner: F/V Mary J, LLC, Manahawkin, NJ. More information available from US FCC via Universal Licensing System and Coast Guard Vessel Documentation Center.

Last reported at 2018-Jun-16 12:37 UTC. Time now 2018-Jun-18 01:26 UTC.
Position N 39°22' W 074°25'.

Type: Other ship. MMSI: 367540250.

Date/timePositionNaut miles runAvg speedWind from/ knotsBaromVisibWave heightAir tempDewpointWater temp
2018-Jun-16 12:37N 39°22' W 074°25'0 0.0
2018-Jun-16 11:55N 39°22' W 074°25'0 0.0
2018-Jun-16 11:25N 39°22' W 074°25'0 0.0
2018-Jun-16 10:58N 39°22' W 074°25'0 0.0
2018-Jun-16 10:22N 39°22' W 074°25'0 0.0
2018-Jun-16 09:52N 39°22' W 074°25'0 0.0
2018-Jun-16 09:28N 39°22' W 074°25'0 0.0
2018-Jun-16 08:58N 39°22' W 074°25'0 0.0
2018-Jun-16 08:28N 39°22' W 074°25'0 0.0
2018-Jun-16 07:10N 39°22' W 074°25'0 0.0
2018-Jun-16 06:58N 39°22' W 074°25'0 0.0
2018-Jun-15 05:16N 39°22' W 074°25'0 0.0
2018-Jun-15 04:58N 39°22' W 074°25'0 0.0
2018-Jun-15 04:28N 39°22' W 074°25'0 0.0
2018-Jun-15 03:58N 39°22' W 074°25'  
2018-Jun-12 12:51N 39°22' W 074°25'0 0.0
2018-Jun-12 12:27N 39°22' W 074°25'0 0.0
2018-Jun-12 12:00N 39°22' W 074°25'0 0.0
2018-Jun-12 11:30N 39°22' W 074°25'0 0.0
2018-Jun-12 10:42N 39°22' W 074°25'31 0.7
2018-Jun-10 13:59N 39°08' W 073°50'7 0.1
2018-Jun-08 12:57N 39°11' W 073°42'1 1.8
2018-Jun-08 12:29N 39°12' W 073°42'3 4.3
2018-Jun-08 11:44N 39°11' W 073°38'0 0.2
2018-Jun-08 10:29N 39°11' W 073°38'0 0.1
2018-Jun-08 08:48N 39°11' W 073°38'1 2.4
2018-Jun-08 08:29N 39°10' W 073°39'1 0.6
2018-Jun-08 06:44N 39°11' W 073°38'0 1.3
2018-Jun-08 06:25N 39°11' W 073°38'1 1.4
2018-Jun-08 05:58N 39°11' W 073°37'1 0.2
2018-Jun-08 00:44N 39°10' W 073°38'1 3.1
2018-Jun-08 00:30N 39°11' W 073°38'24 1.5
2018-Jun-07 08:12N 39°22' W 074°06'  
Track history (hours):
 
Tides and Currents Weather Stations Pressure Air Temp Water Temp Dewpoint Dewpoint Depression Visibility Wind Speed Wind Dir Waves Ship Positions

Mary J

Owner: F/V Mary J, LLC, Manahawkin, NJ. More information available from US FCC via Universal Licensing System and Coast Guard Vessel Documentation Center.

Last reported at 2018-Jun-16 12:37 UTC. Time now 2018-Jun-18 01:26 UTC.
Position N 39°22' W 074°25'.

Type: Other ship. MMSI: 367540250.

Date/timePositionNaut miles runAvg speedWind from/ knotsBaromVisibWave heightAir tempDewpointWater temp
2018-Jun-16 12:37N 39°22' W 074°25'0 0.0
2018-Jun-16 11:55N 39°22' W 074°25'0 0.0
2018-Jun-16 11:25N 39°22' W 074°25'0 0.0
2018-Jun-16 10:58N 39°22' W 074°25'0 0.0
2018-Jun-16 10:22N 39°22' W 074°25'0 0.0
2018-Jun-16 09:52N 39°22' W 074°25'0 0.0
2018-Jun-16 09:28N 39°22' W 074°25'0 0.0
2018-Jun-16 08:58N 39°22' W 074°25'0 0.0
2018-Jun-16 08:28N 39°22' W 074°25'0 0.0
2018-Jun-16 07:10N 39°22' W 074°25'0 0.0
2018-Jun-16 06:58N 39°22' W 074°25'0 0.0
2018-Jun-15 05:16N 39°22' W 074°25'0 0.0
2018-Jun-15 04:58N 39°22' W 074°25'0 0.0
2018-Jun-15 04:28N 39°22' W 074°25'0 0.0
2018-Jun-15 03:58N 39°22' W 074°25'  
2018-Jun-12 12:51N 39°22' W 074°25'0 0.0
2018-Jun-12 12:27N 39°22' W 074°25'0 0.0
2018-Jun-12 12:00N 39°22' W 074°25'0 0.0
2018-Jun-12 11:30N 39°22' W 074°25'0 0.0
2018-Jun-12 10:42N 39°22' W 074°25'31 0.7
2018-Jun-10 13:59N 39°08' W 073°50'7 0.1
2018-Jun-08 12:57N 39°11' W 073°42'1 1.8
2018-Jun-08 12:29N 39°12' W 073°42'3 4.3
2018-Jun-08 11:44N 39°11' W 073°38'0 0.2
2018-Jun-08 10:29N 39°11' W 073°38'0 0.1
2018-Jun-08 08:48N 39°11' W 073°38'1 2.4
2018-Jun-08 08:29N 39°10' W 073°39'1 0.6
2018-Jun-08 06:44N 39°11' W 073°38'0 1.3
2018-Jun-08 06:25N 39°11' W 073°38'1 1.4
2018-Jun-08 05:58N 39°11' W 073°37'1 0.2
2018-Jun-08 00:44N 39°10' W 073°38'1 3.1
2018-Jun-08 00:30N 39°11' W 073°38'24 1.5
2018-Jun-07 08:12N 39°22' W 074°06'  

Dump ship's entire track history